Identifier: KMEV

AWOS Phone: 775-782-6264

AWOS Radio Freq: 119.325

Latitude: 39.00000000

Longitude: -119.75190000

Current Conditions

Updated: 5:13 AM GMT on 26 May 2019

  • Wind Speed (2min):
    8 Knots
  • Wind Direction (2min):
    160 Degrees
  • Temperature (10min):
    9 Celsius
  • Dew Point (10min):
    0 Celsius
  • Humidity:
    52 Percent
  • Altimeter:
    29.75 inHG
  • Density Altitude:
  • Visibility:
    10 Miles
  • Clouds:
    CLR
  • Rainfall Current Hour:
    0 Inches
METAR: METAR KMEV 260515Z AUTO 17007G20KT 10SM CLR 09/00 A2975 RMK AO2